createdAt,value
2023-03-05T00:00:13.375Z,19.33
2023-03-05T00:03:16.317Z,15.23
2023-03-05T00:06:24.066Z,16.05
2023-03-05T00:09:26.799Z,11.25
2023-03-05T00:12:30.282Z,13.15
2023-03-05T00:15:32.986Z,15.73
2023-03-05T00:18:35.979Z,16.40
2023-03-05T00:21:42.221Z,13.73
2023-03-05T00:24:44.953Z,18.52
2023-03-05T00:27:47.659Z,15.38
2023-03-05T00:30:50.704Z,14.63
2023-03-05T00:33:55.290Z,17.50
2023-03-05T00:36:58.602Z,11.70
2023-03-05T00:40:01.399Z,14.57
2023-03-05T00:43:04.922Z,16.25
2023-03-05T00:46:07.778Z,14.40
2023-03-05T00:49:10.663Z,13.33
2023-03-05T00:52:13.527Z,12.55
2023-03-05T00:55:16.329Z,15.70
2023-03-05T00:58:19.092Z,16.08
2023-03-05T01:01:21.863Z,13.88
2023-03-05T01:04:24.736Z,15.17
2023-03-05T01:07:27.529Z,15.32
2023-03-05T01:10:30.434Z,15.13
2023-03-05T01:13:33.536Z,13.60
2023-03-05T01:16:36.284Z,15.40
2023-03-05T01:19:46.643Z,11.47
2023-03-05T01:22:50.089Z,11.57
2023-03-05T01:25:56.832Z,11.57
2023-03-05T01:28:59.930Z,10.48
2023-03-05T01:32:02.757Z,12.85
2023-03-05T01:35:06.537Z,14.13
2023-03-05T01:38:09.298Z,10.15
2023-03-05T01:41:14.024Z,14.32
2023-03-05T01:44:22.394Z,10.68
2023-03-05T01:47:25.150Z,11.05
2023-03-05T01:50:28.396Z,11.90
2023-03-05T01:53:31.855Z,11.77
2023-03-05T01:56:35.256Z,10.98
2023-03-05T01:59:40.573Z,10.88
2023-03-05T02:02:49.928Z,9.95
2023-03-05T02:05:52.783Z,9.70
2023-03-05T02:08:55.631Z,12.38
2023-03-05T02:11:59.059Z,11.18
2023-03-05T02:15:01.885Z,9.93
2023-03-05T02:18:06.917Z,12.20
2023-03-05T02:21:10.703Z,8.57
2023-03-05T02:24:15.212Z,11.35
2023-03-05T02:27:19.668Z,11.65
2023-03-05T02:30:22.594Z,9.65
2023-03-05T02:33:25.408Z,10.27
2023-03-05T02:36:28.343Z,11.37
2023-03-05T02:39:32.165Z,9.55
2023-03-05T02:42:35.533Z,12.40
2023-03-05T02:45:39.053Z,8.88
2023-03-05T02:48:42.507Z,13.90
2023-03-05T02:51:47.854Z,9.30
2023-03-05T02:54:50.646Z,10.20
2023-03-05T02:57:53.778Z,11.20
2023-03-05T03:00:58.354Z,10.10
2023-03-05T03:04:01.314Z,9.23
2023-03-05T03:07:04.213Z,10.63
2023-03-05T03:10:07.590Z,8.75
2023-03-05T03:13:10.317Z,10.82
2023-03-05T03:16:15.168Z,7.35
2023-03-05T03:19:17.918Z,8.35
2023-03-05T03:22:20.736Z,9.07
2023-03-05T03:25:23.584Z,11.63
2023-03-05T03:28:28.404Z,9.45
2023-03-05T03:31:31.109Z,10.98
2023-03-05T03:34:34.003Z,9.02
2023-03-05T03:37:36.760Z,10.63
2023-03-05T03:40:41.252Z,9.10
2023-03-05T03:43:43.999Z,13.02
2023-03-05T03:46:48.243Z,11.07
2023-03-05T03:49:55.234Z,9.95
2023-03-05T03:52:58.048Z,9.40
2023-03-05T03:56:00.938Z,7.50
2023-03-05T03:59:03.840Z,10.52
2023-03-05T04:02:06.666Z,11.43
2023-03-05T04:05:09.708Z,8.13
2023-03-05T04:08:13.193Z,8.10
2023-03-05T04:11:16.262Z,8.05
2023-03-05T04:14:19.226Z,10.13
2023-03-05T04:17:22.171Z,8.48
2023-03-05T04:20:24.894Z,8.68
2023-03-05T04:23:27.561Z,9.43
2023-03-05T04:26:30.331Z,10.57
2023-03-05T04:29:33.908Z,9.15
2023-03-05T04:32:36.905Z,8.52
2023-03-05T04:35:39.918Z,8.35
2023-03-05T04:38:42.735Z,9.93
2023-03-05T04:41:45.639Z,7.90
2023-03-05T04:44:49.750Z,10.35
2023-03-05T04:47:52.655Z,8.70
2023-03-05T04:50:57.869Z,9.13
2023-03-05T04:54:00.724Z,8.57
2023-03-05T04:57:03.698Z,9.90
2023-03-05T05:00:14.491Z,9.30
2023-03-05T05:03:17.350Z,9.38
2023-03-05T05:06:20.086Z,7.97
2023-03-05T05:09:23.376Z,8.87
2023-03-05T05:12:30.763Z,9.70
2023-03-05T05:15:33.592Z,7.90
2023-03-05T05:18:36.547Z,6.95
2023-03-05T05:21:39.877Z,10.65
2023-03-05T05:24:42.862Z,7.00
2023-03-05T05:27:45.628Z,9.90
2023-03-05T05:30:48.341Z,8.77
2023-03-05T05:33:51.116Z,6.43
2023-03-05T05:36:53.865Z,9.18
2023-03-05T05:39:56.668Z,11.77
2023-03-05T05:42:59.470Z,8.88
2023-03-05T05:46:08.364Z,7.95
2023-03-05T05:49:11.313Z,9.25
2023-03-05T05:52:14.358Z,7.32
2023-03-05T05:55:17.217Z,8.53
2023-03-05T05:58:20.119Z,8.93
2023-03-05T06:01:32.047Z,11.68
2023-03-05T06:04:36.214Z,9.15
2023-03-05T06:07:39.177Z,8.20
2023-03-05T06:10:41.988Z,9.17
2023-03-05T06:13:45.370Z,9.20
2023-03-05T06:16:48.143Z,9.68
2023-03-05T06:19:50.889Z,8.27
2023-03-05T06:22:53.585Z,9.07
2023-03-05T06:26:00.000Z,10.30
2023-03-05T06:29:03.417Z,10.15
2023-03-05T06:32:06.654Z,9.98
2023-03-05T06:35:09.555Z,9.98
2023-03-05T06:38:12.396Z,8.60
2023-03-05T06:41:17.878Z,15.23
2023-03-05T06:44:20.649Z,8.40
2023-03-05T06:47:23.368Z,8.27
2023-03-05T06:50:26.284Z,9.23
2023-03-05T06:53:29.362Z,10.27
2023-03-05T06:56:32.614Z,7.40
2023-03-05T06:59:35.315Z,16.60
2023-03-05T07:02:38.772Z,19.02
2023-03-05T07:05:43.579Z,17.50
2023-03-05T07:08:46.888Z,13.80
2023-03-05T07:11:49.609Z,7.83
2023-03-05T07:14:52.521Z,8.98
2023-03-05T07:17:56.689Z,8.02
2023-03-05T07:21:07.216Z,12.00
2023-03-05T07:24:12.231Z,16.60
2023-03-05T07:27:14.953Z,12.50
2023-03-05T07:30:18.097Z,10.38
2023-03-05T07:33:20.888Z,8.88
2023-03-05T07:36:24.296Z,9.35
2023-03-05T07:39:27.075Z,9.63
2023-03-05T07:42:30.155Z,9.07
2023-03-05T07:45:46.550Z,7.13
2023-03-05T07:48:49.801Z,8.73
2023-03-05T07:51:52.574Z,11.50
2023-03-05T07:54:55.283Z,12.32
2023-03-05T07:57:58.053Z,11.53
2023-03-05T08:01:00.860Z,10.18
2023-03-05T08:04:05.093Z,16.42
2023-03-05T08:07:08.078Z,6.97
2023-03-05T08:10:11.392Z,8.80
2023-03-05T08:13:14.139Z,7.30
2023-03-05T08:16:22.026Z,9.13
2023-03-05T08:19:24.774Z,7.88
2023-03-05T08:22:27.651Z,6.88
2023-03-05T08:25:31.568Z,10.73
2023-03-05T08:28:34.517Z,9.47
2023-03-05T08:31:38.122Z,10.77
2023-03-05T08:34:40.936Z,11.25
2023-03-05T08:37:43.831Z,8.70
2023-03-05T08:40:46.620Z,7.35
2023-03-05T08:43:49.421Z,8.80
2023-03-05T08:46:52.148Z,10.85
2023-03-05T08:49:57.346Z,7.30
2023-03-05T08:53:00.321Z,9.82
2023-03-05T08:56:03.825Z,6.53
2023-03-05T08:59:07.040Z,11.10
2023-03-05T09:02:12.936Z,8.50
2023-03-05T09:05:16.234Z,9.65
2023-03-05T09:08:19.487Z,6.13
2023-03-05T09:11:22.464Z,9.70
2023-03-05T09:14:28.244Z,7.23
2023-03-05T09:17:31.035Z,8.43
2023-03-05T09:20:34.062Z,10.40
2023-03-05T09:23:36.837Z,8.40
2023-03-05T09:26:41.464Z,6.25
2023-03-05T09:29:44.172Z,10.67
2023-03-05T09:32:47.081Z,7.90
2023-03-05T09:35:50.057Z,6.68
2023-03-05T09:38:55.177Z,8.00
2023-03-05T09:42:25.748Z,9.32
2023-03-05T09:45:33.154Z,10.90
2023-03-05T09:48:50.241Z,8.63
2023-03-05T09:52:02.165Z,9.73
2023-03-05T09:55:14.009Z,7.32
2023-03-05T09:58:31.576Z,6.20
2023-03-05T10:01:42.283Z,6.77
2023-03-05T10:05:04.181Z,6.38
2023-03-05T10:08:06.992Z,8.25
2023-03-05T10:11:23.719Z,7.38
2023-03-05T10:14:30.800Z,7.57
2023-03-05T10:18:08.682Z,7.43
2023-03-05T10:21:17.302Z,11.32
2023-03-05T10:24:38.693Z,7.80
2023-03-05T10:27:55.181Z,7.22
2023-03-05T10:31:24.981Z,8.23
2023-03-05T10:34:33.924Z,6.73
2023-03-05T10:37:47.237Z,6.78
2023-03-05T10:40:57.107Z,7.82
2023-03-05T10:44:21.794Z,7.25
2023-03-05T10:47:27.961Z,9.85
2023-03-05T10:50:49.548Z,11.47
2023-03-05T10:53:56.291Z,7.13
2023-03-05T10:57:20.093Z,7.53
2023-03-05T11:00:28.236Z,5.90
2023-03-05T11:04:08.117Z,5.88
2023-03-05T11:07:16.653Z,9.30
2023-03-05T11:10:21.602Z,7.80
2023-03-05T11:13:27.742Z,7.97
2023-03-05T11:16:33.529Z,7.55
2023-03-05T11:19:37.779Z,5.88
2023-03-05T11:22:40.839Z,6.13
2023-03-05T11:25:54.523Z,4.72
2023-03-05T11:29:03.303Z,5.47
2023-03-05T11:32:20.260Z,7.47
2023-03-05T11:35:38.096Z,5.70
2023-03-05T11:38:52.835Z,9.80
2023-03-05T11:42:01.446Z,5.75
2023-03-05T11:45:05.051Z,11.85
2023-03-05T11:48:20.253Z,6.90
2023-03-05T11:51:31.719Z,5.32
2023-03-05T11:54:42.968Z,8.10
2023-03-05T11:58:04.928Z,5.78
2023-03-05T12:01:16.161Z,6.15
2023-03-05T12:04:20.817Z,4.75
2023-03-05T12:07:46.496Z,6.28
2023-03-05T12:10:49.317Z,4.93
2023-03-05T12:13:58.143Z,6.90
2023-03-05T12:17:12.705Z,5.22
2023-03-05T12:20:54.060Z,7.65
2023-03-05T12:24:01.500Z,7.65
2023-03-05T12:27:04.655Z,5.10
2023-03-05T12:30:36.696Z,4.28
2023-03-05T12:33:43.745Z,5.32
2023-03-05T12:36:46.515Z,4.88
2023-03-05T12:39:59.186Z,5.20
2023-03-05T12:43:30.141Z,4.87
2023-03-05T12:46:42.232Z,5.10
2023-03-05T12:49:46.356Z,4.88
2023-03-05T12:52:49.387Z,8.88
2023-03-05T12:56:01.309Z,5.80
2023-03-05T12:59:04.538Z,6.03
2023-03-05T13:02:39.434Z,5.55
2023-03-05T13:05:51.237Z,4.45
2023-03-05T13:09:24.757Z,6.05
2023-03-05T13:12:30.141Z,5.25
2023-03-05T13:15:33.041Z,5.43
2023-03-05T13:18:39.543Z,6.13
2023-03-05T13:21:42.528Z,4.32
2023-03-05T13:24:47.219Z,4.25
2023-03-05T13:27:50.321Z,7.07
2023-03-05T13:31:02.746Z,7.23
2023-03-05T13:34:15.400Z,6.20
2023-03-05T13:37:25.107Z,4.70
2023-03-05T13:40:33.087Z,5.40
2023-03-05T13:43:43.192Z,7.18
2023-03-05T13:46:46.130Z,8.53
2023-03-05T13:49:56.807Z,7.15
2023-03-05T13:53:18.208Z,7.60
2023-03-05T13:56:21.643Z,7.72
2023-03-05T13:59:35.768Z,4.55
2023-03-05T14:02:43.249Z,5.87
2023-03-05T14:05:52.839Z,5.68
2023-03-05T14:09:05.344Z,6.40
2023-03-05T14:12:34.008Z,5.43
2023-03-05T14:15:36.741Z,5.50
2023-03-05T14:18:50.979Z,6.17
2023-03-05T14:21:53.918Z,5.95
2023-03-05T14:24:56.915Z,8.63
2023-03-05T14:28:03.046Z,8.20
2023-03-05T14:31:16.270Z,7.78
2023-03-05T14:34:41.139Z,6.83
2023-03-05T14:37:49.196Z,4.78
2023-03-05T14:40:52.193Z,5.50
2023-03-05T14:43:56.413Z,4.32
2023-03-05T14:46:59.316Z,6.40
2023-03-05T14:50:02.112Z,6.73
2023-03-05T14:53:13.862Z,7.20
2023-03-05T14:56:23.211Z,9.18
2023-03-05T14:59:26.256Z,7.38
2023-03-05T15:02:29.511Z,8.27
2023-03-05T15:05:33.437Z,5.70
2023-03-05T15:08:36.495Z,8.82
2023-03-05T15:11:39.609Z,6.50
2023-03-05T15:14:43.622Z,7.55
2023-03-05T15:17:48.277Z,8.35
2023-03-05T15:20:53.230Z,7.30
2023-03-05T15:23:56.030Z,7.45
2023-03-05T15:26:58.807Z,9.55
2023-03-05T15:30:01.903Z,8.90
2023-03-05T15:33:08.681Z,7.68
2023-03-05T15:36:11.807Z,8.20
2023-03-05T15:39:15.980Z,8.23
2023-03-05T15:42:19.452Z,7.47
2023-03-05T15:45:22.900Z,13.50
2023-03-05T15:48:25.992Z,11.48
2023-03-05T15:51:29.053Z,12.90
2023-03-05T15:54:32.168Z,14.15
2023-03-05T15:57:43.819Z,11.43
2023-03-05T16:00:47.698Z,21.45
2023-03-05T16:03:51.622Z,19.33
2023-03-05T16:06:54.935Z,15.83
2023-03-05T16:09:58.688Z,10.27
2023-03-05T16:13:04.693Z,8.10
2023-03-05T16:16:09.227Z,40.70
2023-03-05T16:19:15.805Z,64.97
2023-03-05T16:22:20.223Z,35.97
2023-03-05T16:25:24.118Z,41.40
2023-03-05T16:28:27.208Z,41.88
2023-03-05T16:31:35.625Z,19.48
2023-03-05T16:34:38.673Z,8.43
2023-03-05T16:37:42.027Z,10.13
2023-03-05T16:41:06.827Z,9.07
2023-03-05T16:44:08.213Z,40.95
2023-03-05T16:47:12.422Z,31.38
2023-03-05T16:50:15.478Z,54.45
2023-03-05T16:53:18.782Z,35.93
2023-03-05T16:56:21.921Z,18.58
2023-03-05T16:59:25.397Z,15.02
2023-03-05T17:02:29.209Z,14.50
2023-03-05T17:05:35.212Z,62.45
2023-03-05T17:08:40.019Z,43.77
2023-03-05T17:11:43.167Z,17.90
2023-03-05T17:14:46.395Z,10.85
2023-03-05T17:17:49.589Z,10.57
2023-03-05T17:20:53.800Z,17.85
2023-03-05T17:23:56.984Z,11.27
2023-03-05T17:27:01.125Z,14.25
2023-03-05T17:30:05.568Z,11.82
2023-03-05T17:33:09.813Z,10.43
2023-03-05T17:36:21.638Z,8.50
2023-03-05T17:39:24.714Z,10.27
2023-03-05T17:42:28.171Z,10.75
2023-03-05T17:45:32.629Z,10.77
2023-03-05T17:48:39.116Z,10.80
2023-03-05T17:51:42.143Z,10.02
2023-03-05T17:54:46.217Z,9.73
2023-03-05T17:57:49.215Z,9.55
2023-03-05T18:00:52.566Z,15.32
2023-03-05T18:03:56.615Z,17.35
2023-03-05T18:06:59.710Z,11.82
2023-03-05T18:10:03.528Z,15.27
2023-03-05T18:13:06.703Z,15.30
2023-03-05T18:16:14.418Z,13.18
2023-03-05T18:19:19.417Z,9.63
2023-03-05T18:22:22.316Z,10.82
2023-03-05T18:25:31.137Z,11.27
2023-03-05T18:28:34.469Z,9.07
2023-03-05T18:31:37.954Z,9.75
2023-03-05T18:34:41.098Z,11.32
2023-03-05T18:37:44.192Z,11.25
2023-03-05T18:40:47.937Z,14.27
2023-03-05T18:43:53.851Z,15.63
2023-03-05T18:46:56.651Z,15.40
2023-03-05T18:49:59.856Z,26.15
2023-03-05T18:53:03.055Z,27.35
2023-03-05T18:56:06.791Z,20.63
2023-03-05T18:59:09.883Z,13.07
2023-03-05T19:02:16.704Z,16.13
2023-03-05T19:05:20.846Z,9.50
2023-03-05T19:08:24.027Z,9.07
2023-03-05T19:11:27.310Z,10.13
2023-03-05T19:14:30.756Z,9.38
2023-03-05T19:17:33.743Z,10.55
2023-03-05T19:20:36.966Z,14.70
2023-03-05T19:23:40.018Z,12.77
2023-03-05T19:26:44.146Z,12.80
2023-03-05T19:29:47.313Z,15.50
2023-03-05T19:32:50.463Z,27.95
2023-03-05T19:35:54.228Z,58.03
2023-03-05T19:38:59.737Z,27.02
2023-03-05T19:42:03.967Z,22.93
2023-03-05T19:45:07.968Z,30.42
2023-03-05T19:48:11.022Z,44.80
2023-03-05T19:51:20.340Z,40.97
2023-03-05T19:54:23.666Z,40.45
2023-03-05T19:57:26.792Z,41.43
2023-03-05T20:00:29.844Z,33.85
2023-03-05T20:03:32.970Z,28.65
2023-03-05T20:06:35.964Z,31.00
2023-03-05T20:09:39.095Z,33.25
2023-03-05T20:12:44.107Z,29.63
2023-03-05T20:15:47.134Z,36.92
2023-03-05T20:18:54.908Z,58.88
2023-03-05T20:21:58.060Z,37.75
2023-03-05T20:25:01.007Z,42.17
2023-03-05T20:28:04.589Z,35.90
2023-03-05T20:31:07.420Z,39.85
2023-03-05T20:34:12.811Z,40.50
2023-03-05T20:37:15.566Z,30.73
2023-03-05T20:41:00.284Z,35.83
2023-03-05T20:44:04.302Z,41.80
2023-03-05T20:47:44.813Z,35.10
2023-03-05T20:50:48.021Z,28.95
2023-03-05T20:53:54.361Z,27.38
2023-03-05T20:56:57.481Z,20.70
2023-03-05T21:00:00.953Z,24.20
2023-03-05T21:03:04.796Z,28.05
2023-03-05T21:06:08.542Z,27.50
2023-03-05T21:09:11.351Z,31.83
2023-03-05T21:12:15.434Z,36.67
2023-03-05T21:15:22.536Z,44.40
2023-03-05T21:18:28.297Z,37.72
2023-03-05T21:21:31.744Z,33.83
2023-03-05T21:25:27.731Z,41.25
2023-03-05T21:28:31.923Z,46.45
2023-03-05T21:31:34.964Z,30.40
2023-03-05T21:34:37.975Z,31.40
2023-03-05T21:37:42.698Z,22.58
2023-03-05T21:40:48.542Z,27.50
2023-03-05T21:43:51.386Z,31.63
2023-03-05T21:46:54.137Z,25.00
2023-03-05T21:49:57.320Z,26.10
2023-03-05T21:53:00.995Z,32.63
2023-03-05T21:56:39.183Z,40.13
2023-03-05T21:59:42.314Z,37.72
2023-03-05T22:02:45.977Z,24.70
2023-03-05T22:05:48.696Z,41.40
2023-03-05T22:08:51.500Z,39.55
2023-03-05T22:11:54.236Z,38.15
2023-03-05T22:14:56.999Z,42.10
2023-03-05T22:18:00.461Z,41.47
2023-03-05T22:21:04.102Z,65.50
2023-03-05T22:24:06.951Z,49.72
2023-03-05T22:27:09.766Z,44.88
2023-03-05T22:30:14.561Z,44.80
2023-03-05T22:33:17.333Z,30.43
2023-03-05T22:36:20.988Z,32.25
2023-03-05T22:39:23.993Z,26.05
2023-03-05T22:42:26.861Z,16.83
2023-03-05T22:45:29.658Z,19.42
2023-03-05T22:48:32.404Z,21.60
2023-03-05T22:51:35.668Z,20.15
2023-03-05T22:54:38.512Z,15.35
2023-03-05T22:57:42.189Z,15.07
2023-03-05T23:00:45.153Z,17.65
2023-03-05T23:04:42.640Z,19.23
2023-03-05T23:07:45.878Z,15.68
2023-03-05T23:10:49.000Z,16.85
2023-03-05T23:13:51.735Z,14.45
2023-03-05T23:16:54.411Z,14.55
2023-03-05T23:19:57.134Z,15.53
2023-03-05T23:23:00.725Z,14.30
2023-03-05T23:26:03.732Z,15.18
2023-03-05T23:29:06.633Z,14.18
2023-03-05T23:32:09.994Z,16.27
2023-03-05T23:35:15.776Z,16.03
2023-03-05T23:38:19.013Z,14.98
2023-03-05T23:41:21.751Z,17.10
2023-03-05T23:44:24.524Z,13.82
2023-03-05T23:47:27.802Z,12.60
2023-03-05T23:50:36.394Z,14.30
2023-03-05T23:53:39.180Z,14.05
2023-03-05T23:56:42.280Z,13.15
2023-03-05T23:59:45.327Z,16.50
